<?xml version="1.0" encoding="UTF-8" standalone="no" ?>
<gpx xmlns="http://www.topografix.com/GPX/1/1" xmlns:xsi="http://www.w3.org/2001/XMLSchema-instance" xsi:schemaLocation="http://www.topografix.com/GPX/1/1 http://www.topografix.com/GPX/1/1/gpx.xsd" version="1.1" creator="VisuGPX - https://www.visugpx.com">
  <metadata>
    <name>sud de central park</name>
    <desc><![CDATA[sud de central park]]></desc>
  </metadata>
  <trk>
    <name><![CDATA[sud de central park_1]]></name>
    <trkseg>
      <trkpt lat="40.76451" lon="-73.97739">
        <ele>140</ele>
        <time>2012-04-09T17:04:56Z</time>
      </trkpt>
      <trkpt lat="40.76423" lon="-73.97729">
        <ele>99</ele>
        <time>2012-04-09T17:05:09Z</time>
      </trkpt>
      <trkpt lat="40.76421" lon="-73.97729">
        <ele>98</ele>
        <time>2012-04-09T17:05:10Z</time>
      </trkpt>
      <trkpt lat="40.7642" lon="-73.97729">
        <ele>96</ele>
        <time>2012-04-09T17:05:11Z</time>
      </trkpt>
      <trkpt lat="40.76419" lon="-73.97729">
        <ele>93</ele>
        <time>2012-04-09T17:05:12Z</time>
      </trkpt>
      <trkpt lat="40.76416" lon="-73.97728">
        <ele>90</ele>
        <time>2012-04-09T17:05:15Z</time>
      </trkpt>
      <trkpt lat="40.76414" lon="-73.97726">
        <ele>87</ele>
        <time>2012-04-09T17:05:20Z</time>
      </trkpt>
      <trkpt lat="40.76416" lon="-73.97724">
        <ele>79</ele>
        <time>2012-04-09T17:05:22Z</time>
      </trkpt>
      <trkpt lat="40.76414" lon="-73.97724">
        <ele>70</ele>
        <time>2012-04-09T17:05:27Z</time>
      </trkpt>
      <trkpt lat="40.76415" lon="-73.97723">
        <ele>66</ele>
        <time>2012-04-09T17:05:29Z</time>
      </trkpt>
      <trkpt lat="40.76416" lon="-73.97722">
        <ele>47</ele>
        <time>2012-04-09T17:05:35Z</time>
      </trkpt>
      <trkpt lat="40.76419" lon="-73.97723">
        <ele>41</ele>
        <time>2012-04-09T17:05:38Z</time>
      </trkpt>
      <trkpt lat="40.7642" lon="-73.97723">
        <ele>40</ele>
        <time>2012-04-09T17:05:39Z</time>
      </trkpt>
      <trkpt lat="40.76421" lon="-73.97725">
        <ele>37</ele>
        <time>2012-04-09T17:05:42Z</time>
      </trkpt>
      <trkpt lat="40.76423" lon="-73.97726">
        <ele>36</ele>
        <time>2012-04-09T17:05:44Z</time>
      </trkpt>
      <trkpt lat="40.76424" lon="-73.97725">
        <ele>36</ele>
        <time>2012-04-09T17:05:45Z</time>
      </trkpt>
      <trkpt lat="40.76426" lon="-73.97723">
        <ele>36</ele>
        <time>2012-04-09T17:05:46Z</time>
      </trkpt>
      <trkpt lat="40.7643" lon="-73.97722">
        <ele>36</ele>
        <time>2012-04-09T17:05:47Z</time>
      </trkpt>
      <trkpt lat="40.76433" lon="-73.97721">
        <ele>36</ele>
        <time>2012-04-09T17:05:48Z</time>
      </trkpt>
      <trkpt lat="40.76435" lon="-73.97722">
        <ele>37</ele>
        <time>2012-04-09T17:05:49Z</time>
      </trkpt>
      <trkpt lat="40.76437" lon="-73.9772">
        <ele>38</ele>
        <time>2012-04-09T17:05:50Z</time>
      </trkpt>
      <trkpt lat="40.76438" lon="-73.9772">
        <ele>39</ele>
        <time>2012-04-09T17:05:51Z</time>
      </trkpt>
      <trkpt lat="40.7644" lon="-73.97718">
        <ele>40</ele>
        <time>2012-04-09T17:05:52Z</time>
      </trkpt>
      <trkpt lat="40.76442" lon="-73.97718">
        <ele>42</ele>
        <time>2012-04-09T17:05:53Z</time>
      </trkpt>
      <trkpt lat="40.76443" lon="-73.97719">
        <ele>44</ele>
        <time>2012-04-09T17:05:54Z</time>
      </trkpt>
      <trkpt lat="40.76444" lon="-73.9772">
        <ele>45</ele>
        <time>2012-04-09T17:05:55Z</time>
      </trkpt>
      <trkpt lat="40.76444" lon="-73.97723">
        <ele>47</ele>
        <time>2012-04-09T17:05:57Z</time>
      </trkpt>
      <trkpt lat="40.76443" lon="-73.97725">
        <ele>48</ele>
        <time>2012-04-09T17:05:58Z</time>
      </trkpt>
      <trkpt lat="40.76442" lon="-73.97726">
        <ele>49</ele>
        <time>2012-04-09T17:05:59Z</time>
      </trkpt>
      <trkpt lat="40.7644" lon="-73.97729">
        <ele>51</ele>
        <time>2012-04-09T17:06:01Z</time>
      </trkpt>
      <trkpt lat="40.76441" lon="-73.9773">
        <ele>52</ele>
        <time>2012-04-09T17:06:02Z</time>
      </trkpt>
      <trkpt lat="40.76443" lon="-73.9773">
        <ele>53</ele>
        <time>2012-04-09T17:06:03Z</time>
      </trkpt>
      <trkpt lat="40.76445" lon="-73.97733">
        <ele>54</ele>
        <time>2012-04-09T17:06:04Z</time>
      </trkpt>
      <trkpt lat="40.76442" lon="-73.97717">
        <ele>60</ele>
        <time>2012-04-09T17:06:15Z</time>
      </trkpt>
      <trkpt lat="40.7644" lon="-73.97723">
        <ele>62</ele>
        <time>2012-04-09T17:06:16Z</time>
      </trkpt>
      <trkpt lat="40.76443" lon="-73.97722">
        <ele>66</ele>
        <time>2012-04-09T17:06:19Z</time>
      </trkpt>
      <trkpt lat="40.76443" lon="-73.9772">
        <ele>68</ele>
        <time>2012-04-09T17:06:20Z</time>
      </trkpt>
      <trkpt lat="40.7644" lon="-73.9772">
        <ele>72</ele>
        <time>2012-04-09T17:06:22Z</time>
      </trkpt>
      <trkpt lat="40.76443" lon="-73.97717">
        <ele>76</ele>
        <time>2012-04-09T17:06:24Z</time>
      </trkpt>
      <trkpt lat="40.76446" lon="-73.97716">
        <ele>78</ele>
        <time>2012-04-09T17:06:25Z</time>
      </trkpt>
      <trkpt lat="40.76447" lon="-73.97714">
        <ele>80</ele>
        <time>2012-04-09T17:06:26Z</time>
      </trkpt>
      <trkpt lat="40.76451" lon="-73.97707">
        <ele>85</ele>
        <time>2012-04-09T17:06:31Z</time>
      </trkpt>
      <trkpt lat="40.7645" lon="-73.97704">
        <ele>88</ele>
        <time>2012-04-09T17:06:32Z</time>
      </trkpt>
      <trkpt lat="40.76451" lon="-73.97698">
        <ele>91</ele>
        <time>2012-04-09T17:06:33Z</time>
      </trkpt>
      <trkpt lat="40.76452" lon="-73.97695">
        <ele>94</ele>
        <time>2012-04-09T17:06:34Z</time>
      </trkpt>
      <trkpt lat="40.76454" lon="-73.97689">
        <ele>98</ele>
        <time>2012-04-09T17:06:40Z</time>
      </trkpt>
      <trkpt lat="40.7645" lon="-73.97694">
        <ele>102</ele>
        <time>2012-04-09T17:06:41Z</time>
      </trkpt>
      <trkpt lat="40.76449" lon="-73.97697">
        <ele>106</ele>
        <time>2012-04-09T17:06:42Z</time>
      </trkpt>
      <trkpt lat="40.76451" lon="-73.97697">
        <ele>114</ele>
        <time>2012-04-09T17:06:44Z</time>
      </trkpt>
      <trkpt lat="40.76451" lon="-73.97694">
        <ele>117</ele>
        <time>2012-04-09T17:06:45Z</time>
      </trkpt>
      <trkpt lat="40.76453" lon="-73.97691">
        <ele>120</ele>
        <time>2012-04-09T17:06:46Z</time>
      </trkpt>
      <trkpt lat="40.76454" lon="-73.97691">
        <ele>123</ele>
        <time>2012-04-09T17:06:47Z</time>
      </trkpt>
      <trkpt lat="40.76456" lon="-73.97688">
        <ele>129</ele>
        <time>2012-04-09T17:06:49Z</time>
      </trkpt>
      <trkpt lat="40.76456" lon="-73.97691">
        <ele>133</ele>
        <time>2012-04-09T17:06:52Z</time>
      </trkpt>
      <trkpt lat="40.7646" lon="-73.97691">
        <ele>135</ele>
        <time>2012-04-09T17:06:56Z</time>
      </trkpt>
      <trkpt lat="40.76462" lon="-73.97695">
        <ele>137</ele>
        <time>2012-04-09T17:06:59Z</time>
      </trkpt>
      <trkpt lat="40.76465" lon="-73.97694">
        <ele>138</ele>
        <time>2012-04-09T17:07:00Z</time>
      </trkpt>
      <trkpt lat="40.76467" lon="-73.97696">
        <ele>139</ele>
        <time>2012-04-09T17:07:06Z</time>
      </trkpt>
      <trkpt lat="40.76468" lon="-73.97693">
        <ele>138</ele>
        <time>2012-04-09T17:07:07Z</time>
      </trkpt>
      <trkpt lat="40.76469" lon="-73.97689">
        <ele>138</ele>
        <time>2012-04-09T17:07:08Z</time>
      </trkpt>
      <trkpt lat="40.76471" lon="-73.97688">
        <ele>138</ele>
        <time>2012-04-09T17:07:10Z</time>
      </trkpt>
      <trkpt lat="40.76471" lon="-73.97687">
        <ele>138</ele>
        <time>2012-04-09T17:07:11Z</time>
      </trkpt>
      <trkpt lat="40.76472" lon="-73.97685">
        <ele>138</ele>
        <time>2012-04-09T17:07:13Z</time>
      </trkpt>
      <trkpt lat="40.76471" lon="-73.97683">
        <ele>138</ele>
        <time>2012-04-09T17:07:14Z</time>
      </trkpt>
      <trkpt lat="40.76469" lon="-73.9768">
        <ele>138</ele>
        <time>2012-04-09T17:07:17Z</time>
      </trkpt>
      <trkpt lat="40.76469" lon="-73.97681">
        <ele>138</ele>
        <time>2012-04-09T17:07:21Z</time>
      </trkpt>
      <trkpt lat="40.76468" lon="-73.97684">
        <ele>137</ele>
        <time>2012-04-09T17:07:22Z</time>
      </trkpt>
      <trkpt lat="40.76466" lon="-73.97684">
        <ele>136</ele>
        <time>2012-04-09T17:07:23Z</time>
      </trkpt>
      <trkpt lat="40.76466" lon="-73.97686">
        <ele>134</ele>
        <time>2012-04-09T17:07:25Z</time>
      </trkpt>
      <trkpt lat="40.76466" lon="-73.97689">
        <ele>133</ele>
        <time>2012-04-09T17:07:26Z</time>
      </trkpt>
      <trkpt lat="40.76467" lon="-73.97692">
        <ele>132</ele>
        <time>2012-04-09T17:07:27Z</time>
      </trkpt>
      <trkpt lat="40.76468" lon="-73.97694">
        <ele>130</ele>
        <time>2012-04-09T17:07:29Z</time>
      </trkpt>
      <trkpt lat="40.76468" lon="-73.97697">
        <ele>129</ele>
        <time>2012-04-09T17:07:30Z</time>
      </trkpt>
      <trkpt lat="40.76468" lon="-73.97701">
        <ele>128</ele>
        <time>2012-04-09T17:07:31Z</time>
      </trkpt>
      <trkpt lat="40.76468" lon="-73.97702">
        <ele>126</ele>
        <time>2012-04-09T17:07:32Z</time>
      </trkpt>
      <trkpt lat="40.76467" lon="-73.97704">
        <ele>122</ele>
        <time>2012-04-09T17:07:34Z</time>
      </trkpt>
      <trkpt lat="40.76466" lon="-73.97703">
        <ele>120</ele>
        <time>2012-04-09T17:07:35Z</time>
      </trkpt>
      <trkpt lat="40.76462" lon="-73.9771">
        <ele>108</ele>
        <time>2012-04-09T17:07:41Z</time>
      </trkpt>
      <trkpt lat="40.76471" lon="-73.97704">
        <ele>104</ele>
        <time>2012-04-09T17:07:52Z</time>
      </trkpt>
      <trkpt lat="40.76468" lon="-73.97708">
        <ele>102</ele>
        <time>2012-04-09T17:07:54Z</time>
      </trkpt>
      <trkpt lat="40.76465" lon="-73.97709">
        <ele>101</ele>
        <time>2012-04-09T17:07:55Z</time>
      </trkpt>
      <trkpt lat="40.76462" lon="-73.9771">
        <ele>100</ele>
        <time>2012-04-09T17:07:56Z</time>
      </trkpt>
      <trkpt lat="40.7646" lon="-73.97706">
        <ele>98</ele>
        <time>2012-04-09T17:08:00Z</time>
      </trkpt>
      <trkpt lat="40.76461" lon="-73.97701">
        <ele>97</ele>
        <time>2012-04-09T17:08:01Z</time>
      </trkpt>
      <trkpt lat="40.76464" lon="-73.97703">
        <ele>97</ele>
        <time>2012-04-09T17:08:07Z</time>
      </trkpt>
      <trkpt lat="40.76465" lon="-73.97704">
        <ele>97</ele>
        <time>2012-04-09T17:08:08Z</time>
      </trkpt>
      <trkpt lat="40.7646" lon="-73.9771">
        <ele>97</ele>
        <time>2012-04-09T17:08:13Z</time>
      </trkpt>
      <trkpt lat="40.76459" lon="-73.97708">
        <ele>97</ele>
        <time>2012-04-09T17:08:14Z</time>
      </trkpt>
      <trkpt lat="40.76459" lon="-73.97706">
        <ele>95</ele>
        <time>2012-04-09T17:08:16Z</time>
      </trkpt>
      <trkpt lat="40.76458" lon="-73.97706">
        <ele>94</ele>
        <time>2012-04-09T17:08:18Z</time>
      </trkpt>
      <trkpt lat="40.76456" lon="-73.97705">
        <ele>94</ele>
        <time>2012-04-09T17:08:19Z</time>
      </trkpt>
      <trkpt lat="40.76454" lon="-73.97705">
        <ele>94</ele>
        <time>2012-04-09T17:08:20Z</time>
      </trkpt>
      <trkpt lat="40.76454" lon="-73.97707">
        <ele>94</ele>
        <time>2012-04-09T17:08:21Z</time>
      </trkpt>
      <trkpt lat="40.76453" lon="-73.97711">
        <ele>94</ele>
        <time>2012-04-09T17:08:22Z</time>
      </trkpt>
      <trkpt lat="40.76455" lon="-73.97713">
        <ele>94</ele>
        <time>2012-04-09T17:08:23Z</time>
      </trkpt>
      <trkpt lat="40.76456" lon="-73.97716">
        <ele>94</ele>
        <time>2012-04-09T17:08:24Z</time>
      </trkpt>
      <trkpt lat="40.76457" lon="-73.97717">
        <ele>95</ele>
        <time>2012-04-09T17:08:25Z</time>
      </trkpt>
      <trkpt lat="40.76458" lon="-73.97717">
        <ele>97</ele>
        <time>2012-04-09T17:08:27Z</time>
      </trkpt>
      <trkpt lat="40.76459" lon="-73.97718">
        <ele>98</ele>
        <time>2012-04-09T17:08:28Z</time>
      </trkpt>
      <trkpt lat="40.76461" lon="-73.9772">
        <ele>99</ele>
        <time>2012-04-09T17:08:29Z</time>
      </trkpt>
      <trkpt lat="40.76461" lon="-73.97718">
        <ele>101</ele>
        <time>2012-04-09T17:08:31Z</time>
      </trkpt>
      <trkpt lat="40.7646" lon="-73.9772">
        <ele>104</ele>
        <time>2012-04-09T17:08:33Z</time>
      </trkpt>
      <trkpt lat="40.76461" lon="-73.97722">
        <ele>105</ele>
        <time>2012-04-09T17:08:34Z</time>
      </trkpt>
      <trkpt lat="40.76462" lon="-73.97726">
        <ele>106</ele>
        <time>2012-04-09T17:08:35Z</time>
      </trkpt>
      <trkpt lat="40.76463" lon="-73.97727">
        <ele>107</ele>
        <time>2012-04-09T17:08:36Z</time>
      </trkpt>
      <trkpt lat="40.76464" lon="-73.97728">
        <ele>108</ele>
        <time>2012-04-09T17:08:37Z</time>
      </trkpt>
      <trkpt lat="40.76466" lon="-73.97727">
        <ele>110</ele>
        <time>2012-04-09T17:08:39Z</time>
      </trkpt>
      <trkpt lat="40.76469" lon="-73.97727">
        <ele>114</ele>
        <time>2012-04-09T17:08:41Z</time>
      </trkpt>
      <trkpt lat="40.7647" lon="-73.97729">
        <ele>118</ele>
        <time>2012-04-09T17:08:43Z</time>
      </trkpt>
      <trkpt lat="40.7647" lon="-73.97731">
        <ele>120</ele>
        <time>2012-04-09T17:08:44Z</time>
      </trkpt>
      <trkpt lat="40.76471" lon="-73.97736">
        <ele>123</ele>
        <time>2012-04-09T17:08:46Z</time>
      </trkpt>
      <trkpt lat="40.76471" lon="-73.97739">
        <ele>124</ele>
        <time>2012-04-09T17:08:47Z</time>
      </trkpt>
      <trkpt lat="40.76472" lon="-73.97742">
        <ele>124</ele>
        <time>2012-04-09T17:08:49Z</time>
      </trkpt>
      <trkpt lat="40.76472" lon="-73.97747">
        <ele>123</ele>
        <time>2012-04-09T17:08:50Z</time>
      </trkpt>
      <trkpt lat="40.76472" lon="-73.97749">
        <ele>122</ele>
        <time>2012-04-09T17:08:51Z</time>
      </trkpt>
      <trkpt lat="40.76475" lon="-73.97748">
        <ele>121</ele>
        <time>2012-04-09T17:08:52Z</time>
      </trkpt>
      <trkpt lat="40.7648" lon="-73.97747">
        <ele>120</ele>
        <time>2012-04-09T17:08:53Z</time>
      </trkpt>
      <trkpt lat="40.76485" lon="-73.97749">
        <ele>120</ele>
        <time>2012-04-09T17:08:54Z</time>
      </trkpt>
      <trkpt lat="40.76486" lon="-73.97753">
        <ele>120</ele>
        <time>2012-04-09T17:08:55Z</time>
      </trkpt>
      <trkpt lat="40.76489" lon="-73.97755">
        <ele>120</ele>
        <time>2012-04-09T17:08:56Z</time>
      </trkpt>
      <trkpt lat="40.76491" lon="-73.97758">
        <ele>120</ele>
        <time>2012-04-09T17:08:57Z</time>
      </trkpt>
      <trkpt lat="40.76493" lon="-73.9776">
        <ele>120</ele>
        <time>2012-04-09T17:08:58Z</time>
      </trkpt>
      <trkpt lat="40.76479" lon="-73.97773">
        <ele>120</ele>
        <time>2012-04-09T17:08:59Z</time>
      </trkpt>
      <trkpt lat="40.76473" lon="-73.97781">
        <ele>121</ele>
        <time>2012-04-09T17:09:00Z</time>
      </trkpt>
      <trkpt lat="40.7647" lon="-73.97787">
        <ele>121</ele>
        <time>2012-04-09T17:09:01Z</time>
      </trkpt>
      <trkpt lat="40.76471" lon="-73.9779">
        <ele>122</ele>
        <time>2012-04-09T17:09:02Z</time>
      </trkpt>
      <trkpt lat="40.76472" lon="-73.97794">
        <ele>123</ele>
        <time>2012-04-09T17:09:03Z</time>
      </trkpt>
      <trkpt lat="40.76471" lon="-73.97799">
        <ele>123</ele>
        <time>2012-04-09T17:09:04Z</time>
      </trkpt>
      <trkpt lat="40.76472" lon="-73.97803">
        <ele>123</ele>
        <time>2012-04-09T17:09:05Z</time>
      </trkpt>
      <trkpt lat="40.76473" lon="-73.97806">
        <ele>123</ele>
        <time>2012-04-09T17:09:06Z</time>
      </trkpt>
      <trkpt lat="40.76473" lon="-73.9781">
        <ele>123</ele>
        <time>2012-04-09T17:09:07Z</time>
      </trkpt>
      <trkpt lat="40.76474" lon="-73.97813">
        <ele>123</ele>
        <time>2012-04-09T17:09:08Z</time>
      </trkpt>
      <trkpt lat="40.76475" lon="-73.97818">
        <ele>123</ele>
        <time>2012-04-09T17:09:09Z</time>
      </trkpt>
      <trkpt lat="40.76473" lon="-73.97821">
        <ele>123</ele>
        <time>2012-04-09T17:09:10Z</time>
      </trkpt>
      <trkpt lat="40.76472" lon="-73.97822">
        <ele>123</ele>
        <time>2012-04-09T17:09:11Z</time>
      </trkpt>
      <trkpt lat="40.7647" lon="-73.97823">
        <ele>122</ele>
        <time>2012-04-09T17:09:12Z</time>
      </trkpt>
      <trkpt lat="40.76469" lon="-73.97824">
        <ele>121</ele>
        <time>2012-04-09T17:09:13Z</time>
      </trkpt>
      <trkpt lat="40.76467" lon="-73.97827">
        <ele>120</ele>
        <time>2012-04-09T17:09:14Z</time>
      </trkpt>
      <trkpt lat="40.76467" lon="-73.97831">
        <ele>119</ele>
        <time>2012-04-09T17:09:15Z</time>
      </trkpt>
      <trkpt lat="40.76468" lon="-73.97832">
        <ele>119</ele>
        <time>2012-04-09T17:09:16Z</time>
      </trkpt>
      <trkpt lat="40.76466" lon="-73.97836">
        <ele>117</ele>
        <time>2012-04-09T17:09:18Z</time>
      </trkpt>
      <trkpt lat="40.76465" lon="-73.97836">
        <ele>117</ele>
        <time>2012-04-09T17:09:19Z</time>
      </trkpt>
      <trkpt lat="40.76462" lon="-73.97842">
        <ele>108</ele>
        <time>2012-04-09T17:09:36Z</time>
      </trkpt>
      <trkpt lat="40.76444" lon="-73.97882">
        <ele>114</ele>
        <time>2012-04-09T17:09:56Z</time>
      </trkpt>
      <trkpt lat="40.76439" lon="-73.9789">
        <ele>114</ele>
        <time>2012-04-09T17:09:57Z</time>
      </trkpt>
      <trkpt lat="40.76438" lon="-73.97893">
        <ele>114</ele>
        <time>2012-04-09T17:09:58Z</time>
      </trkpt>
      <trkpt lat="40.76438" lon="-73.97895">
        <ele>114</ele>
        <time>2012-04-09T17:09:59Z</time>
      </trkpt>
      <trkpt lat="40.76439" lon="-73.97898">
        <ele>114</ele>
        <time>2012-04-09T17:10:00Z</time>
      </trkpt>
      <trkpt lat="40.7644" lon="-73.97901">
        <ele>114</ele>
        <time>2012-04-09T17:10:02Z</time>
      </trkpt>
      <trkpt lat="40.7644" lon="-73.97903">
        <ele>114</ele>
        <time>2012-04-09T17:10:03Z</time>
      </trkpt>
      <trkpt lat="40.76441" lon="-73.97903">
        <ele>115</ele>
        <time>2012-04-09T17:10:06Z</time>
      </trkpt>
      <trkpt lat="40.76444" lon="-73.97904">
        <ele>116</ele>
        <time>2012-04-09T17:10:09Z</time>
      </trkpt>
      <trkpt lat="40.76444" lon="-73.97906">
        <ele>116</ele>
        <time>2012-04-09T17:10:10Z</time>
      </trkpt>
      <trkpt lat="40.76445" lon="-73.97907">
        <ele>116</ele>
        <time>2012-04-09T17:10:11Z</time>
      </trkpt>
      <trkpt lat="40.76448" lon="-73.97908">
        <ele>116</ele>
        <time>2012-04-09T17:10:13Z</time>
      </trkpt>
      <trkpt lat="40.76449" lon="-73.97908">
        <ele>116</ele>
        <time>2012-04-09T17:10:14Z</time>
      </trkpt>
      <trkpt lat="40.76453" lon="-73.97908">
        <ele>116</ele>
        <time>2012-04-09T17:10:15Z</time>
      </trkpt>
      <trkpt lat="40.76455" lon="-73.97909">
        <ele>117</ele>
        <time>2012-04-09T17:10:16Z</time>
      </trkpt>
      <trkpt lat="40.76456" lon="-73.97906">
        <ele>119</ele>
        <time>2012-04-09T17:10:18Z</time>
      </trkpt>
      <trkpt lat="40.76459" lon="-73.97904">
        <ele>121</ele>
        <time>2012-04-09T17:10:20Z</time>
      </trkpt>
      <trkpt lat="40.76458" lon="-73.97906">
        <ele>122</ele>
        <time>2012-04-09T17:10:21Z</time>
      </trkpt>
      <trkpt lat="40.76458" lon="-73.9791">
        <ele>123</ele>
        <time>2012-04-09T17:10:22Z</time>
      </trkpt>
      <trkpt lat="40.76458" lon="-73.97912">
        <ele>124</ele>
        <time>2012-04-09T17:10:23Z</time>
      </trkpt>
      <trkpt lat="40.7646" lon="-73.97914">
        <ele>125</ele>
        <time>2012-04-09T17:10:24Z</time>
      </trkpt>
      <trkpt lat="40.76461" lon="-73.97917">
        <ele>125</ele>
        <time>2012-04-09T17:10:25Z</time>
      </trkpt>
      <trkpt lat="40.76464" lon="-73.97919">
        <ele>125</ele>
        <time>2012-04-09T17:10:26Z</time>
      </trkpt>
      <trkpt lat="40.76466" lon="-73.97919">
        <ele>125</ele>
        <time>2012-04-09T17:10:27Z</time>
      </trkpt>
      <trkpt lat="40.76468" lon="-73.97919">
        <ele>125</ele>
        <time>2012-04-09T17:10:29Z</time>
      </trkpt>
      <trkpt lat="40.7647" lon="-73.97919">
        <ele>125</ele>
        <time>2012-04-09T17:10:31Z</time>
      </trkpt>
      <trkpt lat="40.76471" lon="-73.9792">
        <ele>125</ele>
        <time>2012-04-09T17:10:32Z</time>
      </trkpt>
      <trkpt lat="40.76468" lon="-73.97924">
        <ele>125</ele>
        <time>2012-04-09T17:10:34Z</time>
      </trkpt>
      <trkpt lat="40.76469" lon="-73.97926">
        <ele>125</ele>
        <time>2012-04-09T17:10:36Z</time>
      </trkpt>
      <trkpt lat="40.7647" lon="-73.97929">
        <ele>125</ele>
        <time>2012-04-09T17:10:38Z</time>
      </trkpt>
      <trkpt lat="40.76471" lon="-73.97932">
        <ele>124</ele>
        <time>2012-04-09T17:10:39Z</time>
      </trkpt>
      <trkpt lat="40.76472" lon="-73.97934">
        <ele>123</ele>
        <time>2012-04-09T17:10:40Z</time>
      </trkpt>
      <trkpt lat="40.76474" lon="-73.97936">
        <ele>122</ele>
        <time>2012-04-09T17:10:41Z</time>
      </trkpt>
      <trkpt lat="40.76475" lon="-73.97939">
        <ele>120</ele>
        <time>2012-04-09T17:10:43Z</time>
      </trkpt>
      <trkpt lat="40.76477" lon="-73.9794">
        <ele>119</ele>
        <time>2012-04-09T17:10:44Z</time>
      </trkpt>
      <trkpt lat="40.76477" lon="-73.97942">
        <ele>119</ele>
        <time>2012-04-09T17:10:45Z</time>
      </trkpt>
      <trkpt lat="40.76479" lon="-73.97943">
        <ele>118</ele>
        <time>2012-04-09T17:10:46Z</time>
      </trkpt>
      <trkpt lat="40.76482" lon="-73.97945">
        <ele>118</ele>
        <time>2012-04-09T17:10:48Z</time>
      </trkpt>
      <trkpt lat="40.76486" lon="-73.97946">
        <ele>118</ele>
        <time>2012-04-09T17:10:49Z</time>
      </trkpt>
      <trkpt lat="40.76488" lon="-73.97948">
        <ele>118</ele>
        <time>2012-04-09T17:10:51Z</time>
      </trkpt>
      <trkpt lat="40.76488" lon="-73.9795">
        <ele>118</ele>
        <time>2012-04-09T17:10:52Z</time>
      </trkpt>
      <trkpt lat="40.7649" lon="-73.97952">
        <ele>118</ele>
        <time>2012-04-09T17:10:53Z</time>
      </trkpt>
      <trkpt lat="40.76495" lon="-73.9795">
        <ele>118</ele>
        <time>2012-04-09T17:10:55Z</time>
      </trkpt>
      <trkpt lat="40.76497" lon="-73.9795">
        <ele>118</ele>
        <time>2012-04-09T17:10:56Z</time>
      </trkpt>
      <trkpt lat="40.76499" lon="-73.97948">
        <ele>118</ele>
        <time>2012-04-09T17:11:00Z</time>
      </trkpt>
      <trkpt lat="40.76501" lon="-73.97947">
        <ele>118</ele>
        <time>2012-04-09T17:11:01Z</time>
      </trkpt>
      <trkpt lat="40.76506" lon="-73.97945">
        <ele>119</ele>
        <time>2012-04-09T17:11:02Z</time>
      </trkpt>
      <trkpt lat="40.76509" lon="-73.97943">
        <ele>120</ele>
        <time>2012-04-09T17:11:03Z</time>
      </trkpt>
      <trkpt lat="40.76511" lon="-73.97942">
        <ele>121</ele>
        <time>2012-04-09T17:11:04Z</time>
      </trkpt>
      <trkpt lat="40.76511" lon="-73.97945">
        <ele>123</ele>
        <time>2012-04-09T17:11:06Z</time>
      </trkpt>
      <trkpt lat="40.7651" lon="-73.97943">
        <ele>126</ele>
        <time>2012-04-09T17:11:09Z</time>
      </trkpt>
      <trkpt lat="40.76509" lon="-73.97942">
        <ele>127</ele>
        <time>2012-04-09T17:11:10Z</time>
      </trkpt>
      <trkpt lat="40.76508" lon="-73.97942">
        <ele>130</ele>
        <time>2012-04-09T17:11:13Z</time>
      </trkpt>
      <trkpt lat="40.76509" lon="-73.97942">
        <ele>130</ele>
        <time>2012-04-09T17:11:16Z</time>
      </trkpt>
      <trkpt lat="40.76508" lon="-73.97944">
        <ele>130</ele>
        <time>2012-04-09T17:11:18Z</time>
      </trkpt>
      <trkpt lat="40.76508" lon="-73.97947">
        <ele>130</ele>
        <time>2012-04-09T17:11:19Z</time>
      </trkpt>
      <trkpt lat="40.76507" lon="-73.97945">
        <ele>130</ele>
        <time>2012-04-09T17:11:23Z</time>
      </trkpt>
      <trkpt lat="40.76508" lon="-73.97948">
        <ele>131</ele>
        <time>2012-04-09T17:11:25Z</time>
      </trkpt>
      <trkpt lat="40.76512" lon="-73.97948">
        <ele>134</ele>
        <time>2012-04-09T17:11:28Z</time>
      </trkpt>
      <trkpt lat="40.7651" lon="-73.97951">
        <ele>136</ele>
        <time>2012-04-09T17:11:30Z</time>
      </trkpt>
      <trkpt lat="40.76508" lon="-73.9795">
        <ele>137</ele>
        <time>2012-04-09T17:11:31Z</time>
      </trkpt>
      <trkpt lat="40.76506" lon="-73.9795">
        <ele>138</ele>
        <time>2012-04-09T17:11:32Z</time>
      </trkpt>
      <trkpt lat="40.76505" lon="-73.97953">
        <ele>138</ele>
        <time>2012-04-09T17:11:33Z</time>
      </trkpt>
      <trkpt lat="40.76505" lon="-73.97955">
        <ele>138</ele>
        <time>2012-04-09T17:11:35Z</time>
      </trkpt>
      <trkpt lat="40.76504" lon="-73.97958">
        <ele>138</ele>
        <time>2012-04-09T17:11:36Z</time>
      </trkpt>
      <trkpt lat="40.76503" lon="-73.9796">
        <ele>138</ele>
        <time>2012-04-09T17:11:37Z</time>
      </trkpt>
      <trkpt lat="40.76503" lon="-73.97962">
        <ele>138</ele>
        <time>2012-04-09T17:11:38Z</time>
      </trkpt>
      <trkpt lat="40.76501" lon="-73.97961">
        <ele>137</ele>
        <time>2012-04-09T17:11:39Z</time>
      </trkpt>
      <trkpt lat="40.765" lon="-73.97961">
        <ele>136</ele>
        <time>2012-04-09T17:11:40Z</time>
      </trkpt>
      <trkpt lat="40.76474" lon="-73.98042">
        <ele>78</ele>
        <time>2012-04-09T17:12:16Z</time>
      </trkpt>
      <trkpt lat="40.76477" lon="-73.98044">
        <ele>75</ele>
        <time>2012-04-09T17:12:17Z</time>
      </trkpt>
      <trkpt lat="40.7648" lon="-73.98044">
        <ele>72</ele>
        <time>2012-04-09T17:12:19Z</time>
      </trkpt>
      <trkpt lat="40.76482" lon="-73.98042">
        <ele>69</ele>
        <time>2012-04-09T17:12:20Z</time>
      </trkpt>
      <trkpt lat="40.76483" lon="-73.98042">
        <ele>66</ele>
        <time>2012-04-09T17:12:21Z</time>
      </trkpt>
      <trkpt lat="40.76483" lon="-73.98044">
        <ele>57</ele>
        <time>2012-04-09T17:12:24Z</time>
      </trkpt>
      <trkpt lat="40.76485" lon="-73.98042">
        <ele>54</ele>
        <time>2012-04-09T17:12:25Z</time>
      </trkpt>
      <trkpt lat="40.76489" lon="-73.98043">
        <ele>41</ele>
        <time>2012-04-09T17:12:36Z</time>
      </trkpt>
      <trkpt lat="40.76489" lon="-73.98045">
        <ele>41</ele>
        <time>2012-04-09T17:12:37Z</time>
      </trkpt>
      <trkpt lat="40.76488" lon="-73.98047">
        <ele>41</ele>
        <time>2012-04-09T17:12:38Z</time>
      </trkpt>
      <trkpt lat="40.76492" lon="-73.98048">
        <ele>41</ele>
        <time>2012-04-09T17:12:39Z</time>
      </trkpt>
      <trkpt lat="40.76494" lon="-73.98048">
        <ele>41</ele>
        <time>2012-04-09T17:12:40Z</time>
      </trkpt>
      <trkpt lat="40.765" lon="-73.9805">
        <ele>42</ele>
        <time>2012-04-09T17:12:41Z</time>
      </trkpt>
      <trkpt lat="40.76503" lon="-73.98051">
        <ele>43</ele>
        <time>2012-04-09T17:12:42Z</time>
      </trkpt>
      <trkpt lat="40.76506" lon="-73.98051">
        <ele>45</ele>
        <time>2012-04-09T17:12:43Z</time>
      </trkpt>
      <trkpt lat="40.76506" lon="-73.98053">
        <ele>47</ele>
        <time>2012-04-09T17:12:44Z</time>
      </trkpt>
      <trkpt lat="40.76508" lon="-73.98054">
        <ele>54</ele>
        <time>2012-04-09T17:12:47Z</time>
      </trkpt>
      <trkpt lat="40.76506" lon="-73.98055">
        <ele>56</ele>
        <time>2012-04-09T17:12:48Z</time>
      </trkpt>
      <trkpt lat="40.76505" lon="-73.98055">
        <ele>58</ele>
        <time>2012-04-09T17:12:49Z</time>
      </trkpt>
      <trkpt lat="40.76504" lon="-73.98057">
        <ele>61</ele>
        <time>2012-04-09T17:12:51Z</time>
      </trkpt>
      <trkpt lat="40.76502" lon="-73.98058">
        <ele>63</ele>
        <time>2012-04-09T17:12:55Z</time>
      </trkpt>
      <trkpt lat="40.76503" lon="-73.98051">
        <ele>64</ele>
        <time>2012-04-09T17:12:56Z</time>
      </trkpt>
      <trkpt lat="40.76501" lon="-73.9805">
        <ele>65</ele>
        <time>2012-04-09T17:12:57Z</time>
      </trkpt>
      <trkpt lat="40.76498" lon="-73.98051">
        <ele>66</ele>
        <time>2012-04-09T17:12:58Z</time>
      </trkpt>
      <trkpt lat="40.765" lon="-73.98053">
        <ele>69</ele>
        <time>2012-04-09T17:13:00Z</time>
      </trkpt>
      <trkpt lat="40.765" lon="-73.98055">
        <ele>70</ele>
        <time>2012-04-09T17:13:01Z</time>
      </trkpt>
      <trkpt lat="40.765" lon="-73.98053">
        <ele>74</ele>
        <time>2012-04-09T17:13:03Z</time>
      </trkpt>
      <trkpt lat="40.7649" lon="-73.98093">
        <ele>80</ele>
        <time>2012-04-09T17:13:11Z</time>
      </trkpt>
      <trkpt lat="40.76489" lon="-73.98096">
        <ele>79</ele>
        <time>2012-04-09T17:13:12Z</time>
      </trkpt>
      <trkpt lat="40.7649" lon="-73.98096">
        <ele>78</ele>
        <time>2012-04-09T17:13:13Z</time>
      </trkpt>
      <trkpt lat="40.76492" lon="-73.98094">
        <ele>77</ele>
        <time>2012-04-09T17:13:14Z</time>
      </trkpt>
      <trkpt lat="40.76494" lon="-73.98092">
        <ele>76</ele>
        <time>2012-04-09T17:13:16Z</time>
      </trkpt>
      <trkpt lat="40.76498" lon="-73.98088">
        <ele>77</ele>
        <time>2012-04-09T17:13:17Z</time>
      </trkpt>
      <trkpt lat="40.76499" lon="-73.98085">
        <ele>79</ele>
        <time>2012-04-09T17:13:18Z</time>
      </trkpt>
      <trkpt lat="40.76498" lon="-73.98083">
        <ele>85</ele>
        <time>2012-04-09T17:13:20Z</time>
      </trkpt>
      <trkpt lat="40.76496" lon="-73.98082">
        <ele>89</ele>
        <time>2012-04-09T17:13:21Z</time>
      </trkpt>
      <trkpt lat="40.76494" lon="-73.98081">
        <ele>93</ele>
        <time>2012-04-09T17:13:22Z</time>
      </trkpt>
      <trkpt lat="40.76492" lon="-73.98081">
        <ele>96</ele>
        <time>2012-04-09T17:13:23Z</time>
      </trkpt>
      <trkpt lat="40.76491" lon="-73.9808">
        <ele>99</ele>
        <time>2012-04-09T17:13:24Z</time>
      </trkpt>
      <trkpt lat="40.76491" lon="-73.98077">
        <ele>101</ele>
        <time>2012-04-09T17:13:25Z</time>
      </trkpt>
      <trkpt lat="40.7649" lon="-73.98077">
        <ele>103</ele>
        <time>2012-04-09T17:13:26Z</time>
      </trkpt>
      <trkpt lat="40.76489" lon="-73.98076">
        <ele>105</ele>
        <time>2012-04-09T17:13:27Z</time>
      </trkpt>
      <trkpt lat="40.76488" lon="-73.98072">
        <ele>107</ele>
        <time>2012-04-09T17:13:28Z</time>
      </trkpt>
      <trkpt lat="40.76489" lon="-73.98069">
        <ele>109</ele>
        <time>2012-04-09T17:13:29Z</time>
      </trkpt>
      <trkpt lat="40.76488" lon="-73.98065">
        <ele>112</ele>
        <time>2012-04-09T17:13:32Z</time>
      </trkpt>
      <trkpt lat="40.76485" lon="-73.98066">
        <ele>115</ele>
        <time>2012-04-09T17:13:33Z</time>
      </trkpt>
      <trkpt lat="40.76482" lon="-73.98067">
        <ele>117</ele>
        <time>2012-04-09T17:13:34Z</time>
      </trkpt>
      <trkpt lat="40.76481" lon="-73.98065">
        <ele>121</ele>
        <time>2012-04-09T17:13:36Z</time>
      </trkpt>
      <trkpt lat="40.7648" lon="-73.98067">
        <ele>129</ele>
        <time>2012-04-09T17:13:41Z</time>
      </trkpt>
      <trkpt lat="40.7648" lon="-73.98069">
        <ele>130</ele>
        <time>2012-04-09T17:13:42Z</time>
      </trkpt>
      <trkpt lat="40.76479" lon="-73.98071">
        <ele>132</ele>
        <time>2012-04-09T17:13:44Z</time>
      </trkpt>
      <trkpt lat="40.76478" lon="-73.98074">
        <ele>133</ele>
        <time>2012-04-09T17:13:45Z</time>
      </trkpt>
      <trkpt lat="40.76479" lon="-73.98075">
        <ele>134</ele>
        <time>2012-04-09T17:13:46Z</time>
      </trkpt>
      <trkpt lat="40.76479" lon="-73.98077">
        <ele>134</ele>
        <time>2012-04-09T17:13:48Z</time>
      </trkpt>
      <trkpt lat="40.76479" lon="-73.98079">
        <ele>134</ele>
        <time>2012-04-09T17:13:50Z</time>
      </trkpt>
      <trkpt lat="40.76477" lon="-73.9808">
        <ele>130</ele>
        <time>2012-04-09T17:13:54Z</time>
      </trkpt>
      <trkpt lat="40.76478" lon="-73.9808">
        <ele>127</ele>
        <time>2012-04-09T17:13:57Z</time>
      </trkpt>
      <trkpt lat="40.76477" lon="-73.98083">
        <ele>121</ele>
        <time>2012-04-09T17:14:01Z</time>
      </trkpt>
      <trkpt lat="40.76476" lon="-73.98082">
        <ele>120</ele>
        <time>2012-04-09T17:14:02Z</time>
      </trkpt>
      <trkpt lat="40.76474" lon="-73.98081">
        <ele>119</ele>
        <time>2012-04-09T17:14:03Z</time>
      </trkpt>
      <trkpt lat="40.76472" lon="-73.9808">
        <ele>118</ele>
        <time>2012-04-09T17:14:04Z</time>
      </trkpt>
      <trkpt lat="40.76471" lon="-73.9808">
        <ele>117</ele>
        <time>2012-04-09T17:14:05Z</time>
      </trkpt>
      <trkpt lat="40.76469" lon="-73.9808">
        <ele>116</ele>
        <time>2012-04-09T17:14:06Z</time>
      </trkpt>
      <trkpt lat="40.76467" lon="-73.98078">
        <ele>115</ele>
        <time>2012-04-09T17:14:09Z</time>
      </trkpt>
      <trkpt lat="40.76465" lon="-73.98077">
        <ele>114</ele>
        <time>2012-04-09T17:14:11Z</time>
      </trkpt>
      <trkpt lat="40.76464" lon="-73.98077">
        <ele>113</ele>
        <time>2012-04-09T17:14:12Z</time>
      </trkpt>
      <trkpt lat="40.76461" lon="-73.98077">
        <ele>112</ele>
        <time>2012-04-09T17:14:15Z</time>
      </trkpt>
      <trkpt lat="40.76459" lon="-73.98078">
        <ele>112</ele>
        <time>2012-04-09T17:14:16Z</time>
      </trkpt>
      <trkpt lat="40.76457" lon="-73.9808">
        <ele>112</ele>
        <time>2012-04-09T17:14:17Z</time>
      </trkpt>
      <trkpt lat="40.76455" lon="-73.9808">
        <ele>112</ele>
        <time>2012-04-09T17:14:18Z</time>
      </trkpt>
      <trkpt lat="40.76454" lon="-73.98082">
        <ele>112</ele>
        <time>2012-04-09T17:14:19Z</time>
      </trkpt>
      <trkpt lat="40.76453" lon="-73.98083">
        <ele>112</ele>
        <time>2012-04-09T17:14:20Z</time>
      </trkpt>
      <trkpt lat="40.76448" lon="-73.98083">
        <ele>112</ele>
        <time>2012-04-09T17:14:21Z</time>
      </trkpt>
      <trkpt lat="40.76445" lon="-73.98084">
        <ele>112</ele>
        <time>2012-04-09T17:14:22Z</time>
      </trkpt>
      <trkpt lat="40.7644" lon="-73.98085">
        <ele>112</ele>
        <time>2012-04-09T17:14:23Z</time>
      </trkpt>
      <trkpt lat="40.76437" lon="-73.98086">
        <ele>112</ele>
        <time>2012-04-09T17:14:24Z</time>
      </trkpt>
      <trkpt lat="40.76434" lon="-73.98087">
        <ele>112</ele>
        <time>2012-04-09T17:14:25Z</time>
      </trkpt>
      <trkpt lat="40.76432" lon="-73.98089">
        <ele>111</ele>
        <time>2012-04-09T17:14:26Z</time>
      </trkpt>
      <trkpt lat="40.76433" lon="-73.9809">
        <ele>110</ele>
        <time>2012-04-09T17:14:27Z</time>
      </trkpt>
      <trkpt lat="40.76433" lon="-73.98092">
        <ele>108</ele>
        <time>2012-04-09T17:14:29Z</time>
      </trkpt>
      <trkpt lat="40.76433" lon="-73.98094">
        <ele>107</ele>
        <time>2012-04-09T17:14:30Z</time>
      </trkpt>
      <trkpt lat="40.76435" lon="-73.98094">
        <ele>106</ele>
        <time>2012-04-09T17:14:31Z</time>
      </trkpt>
      <trkpt lat="40.76437" lon="-73.98095">
        <ele>105</ele>
        <time>2012-04-09T17:14:32Z</time>
      </trkpt>
      <trkpt lat="40.7644" lon="-73.98095">
        <ele>104</ele>
        <time>2012-04-09T17:14:33Z</time>
      </trkpt>
      <trkpt lat="40.76443" lon="-73.98096">
        <ele>102</ele>
        <time>2012-04-09T17:14:35Z</time>
      </trkpt>
      <trkpt lat="40.76445" lon="-73.98096">
        <ele>101</ele>
        <time>2012-04-09T17:14:37Z</time>
      </trkpt>
      <trkpt lat="40.76444" lon="-73.98098">
        <ele>101</ele>
        <time>2012-04-09T17:14:40Z</time>
      </trkpt>
      <trkpt lat="40.76442" lon="-73.98098">
        <ele>100</ele>
        <time>2012-04-09T17:14:41Z</time>
      </trkpt>
      <trkpt lat="40.76442" lon="-73.981">
        <ele>98</ele>
        <time>2012-04-09T17:14:43Z</time>
      </trkpt>
      <trkpt lat="40.76443" lon="-73.98101">
        <ele>98</ele>
        <time>2012-04-09T17:14:44Z</time>
      </trkpt>
      <trkpt lat="40.76443" lon="-73.98103">
        <ele>98</ele>
        <time>2012-04-09T17:14:46Z</time>
      </trkpt>
      <trkpt lat="40.76442" lon="-73.98104">
        <ele>98</ele>
        <time>2012-04-09T17:14:48Z</time>
      </trkpt>
      <trkpt lat="40.7644" lon="-73.98106">
        <ele>98</ele>
        <time>2012-04-09T17:14:50Z</time>
      </trkpt>
      <trkpt lat="40.76439" lon="-73.98106">
        <ele>98</ele>
        <time>2012-04-09T17:14:52Z</time>
      </trkpt>
      <trkpt lat="40.7644" lon="-73.98107">
        <ele>98</ele>
        <time>2012-04-09T17:14:53Z</time>
      </trkpt>
      <trkpt lat="40.7644" lon="-73.98109">
        <ele>98</ele>
        <time>2012-04-09T17:14:54Z</time>
      </trkpt>
      <trkpt lat="40.76439" lon="-73.98109">
        <ele>100</ele>
        <time>2012-04-09T17:14:57Z</time>
      </trkpt>
      <trkpt lat="40.76437" lon="-73.98109">
        <ele>100</ele>
        <time>2012-04-09T17:14:59Z</time>
      </trkpt>
      <trkpt lat="40.76435" lon="-73.98109">
        <ele>100</ele>
        <time>2012-04-09T17:15:00Z</time>
      </trkpt>
      <trkpt lat="40.76438" lon="-73.98109">
        <ele>100</ele>
        <time>2012-04-09T17:15:02Z</time>
      </trkpt>
      <trkpt lat="40.76437" lon="-73.98111">
        <ele>97</ele>
        <time>2012-04-09T17:15:06Z</time>
      </trkpt>
      <trkpt lat="40.76439" lon="-73.98111">
        <ele>95</ele>
        <time>2012-04-09T17:15:07Z</time>
      </trkpt>
      <trkpt lat="40.76442" lon="-73.9811">
        <ele>93</ele>
        <time>2012-04-09T17:15:08Z</time>
      </trkpt>
      <trkpt lat="40.76443" lon="-73.98109">
        <ele>92</ele>
        <time>2012-04-09T17:15:09Z</time>
      </trkpt>
      <trkpt lat="40.76445" lon="-73.98109">
        <ele>91</ele>
        <time>2012-04-09T17:15:10Z</time>
      </trkpt>
      <trkpt lat="40.76445" lon="-73.98106">
        <ele>90</ele>
        <time>2012-04-09T17:15:14Z</time>
      </trkpt>
      <trkpt lat="40.76444" lon="-73.98103">
        <ele>90</ele>
        <time>2012-04-09T17:15:15Z</time>
      </trkpt>
      <trkpt lat="40.76442" lon="-73.98103">
        <ele>90</ele>
        <time>2012-04-09T17:15:16Z</time>
      </trkpt>
      <trkpt lat="40.76441" lon="-73.98103">
        <ele>90</ele>
        <time>2012-04-09T17:15:18Z</time>
      </trkpt>
      <trkpt lat="40.7644" lon="-73.98102">
        <ele>90</ele>
        <time>2012-04-09T17:15:20Z</time>
      </trkpt>
      <trkpt lat="40.76441" lon="-73.98102">
        <ele>90</ele>
        <time>2012-04-09T17:15:21Z</time>
      </trkpt>
    </trkseg>
  </trk>
</gpx>